Time;durP1;ratioP1;P1;durP2;ratioP2;P2;SDS_P1;SDS_P2;PMS_P1;PMS_P2;Temp;Humidity;BMP_temperature;BMP_pressure;BME280_temperature;BME280_humidity;BME280_pressure;Samples;Min_cycle;Max_cycle;Signal;HPM_P1;HPM_P2
2023/06/17 00:02:05;;;;;;;17.88;12.82;;;16.20;99.90;;;;;;5066615;28;20089;-74
2023/06/17 00:04:31;;;;;;;15.32;11.85;;;16.30;99.90;;;;;;5067590;28;20041;-74
2023/06/17 00:06:57;;;;;;;17.52;12.50;;;16.30;99.90;;;;;;5051347;28;20044;-72
2023/06/17 00:09:22;;;;;;;16.20;13.38;;;16.20;99.90;;;;;;5067196;28;20063;-73
2023/06/17 00:11:48;;;;;;;14.00;12.57;;;16.20;99.90;;;;;;5039122;28;20045;-70
2023/06/17 00:14:16;;;;;;;22.67;14.40;;;16.30;99.90;;;;;;5044745;28;20105;-72
2023/06/17 00:16:45;;;;;;;14.70;12.23;;;16.30;99.90;;;;;;5034316;28;20044;-71
2023/06/17 00:19:15;;;;;;;20.08;13.35;;;16.20;99.90;;;;;;5071344;28;20040;-68
2023/06/17 00:21:48;;;;;;;16.20;13.27;;;16.30;99.90;;;;;;5059972;28;20094;-74
2023/06/17 00:24:14;;;;;;;17.23;13.40;;;16.20;99.90;;;;;;5065734;28;20044;-70
2023/06/17 00:26:40;;;;;;;15.77;13.77;;;16.30;99.90;;;;;;5058020;28;20083;-71
2023/06/17 00:29:06;;;;;;;20.15;14.82;;;16.30;99.90;;;;;;5051393;28;20527;-72
2023/06/17 00:31:33;;;;;;;20.20;13.80;;;16.40;99.90;;;;;;5052513;28;20037;-69
2023/06/17 00:33:59;;;;;;;19.20;14.07;;;16.20;99.90;;;;;;5051401;28;20173;-70
2023/06/17 00:36:24;;;;;;;17.60;14.30;;;16.20;99.90;;;;;;5062477;28;20528;-72
2023/06/17 00:38:50;;;;;;;16.88;15.10;;;16.20;99.90;;;;;;5051654;28;20182;-73
2023/06/17 00:41:16;;;;;;;20.02;14.27;;;16.20;99.90;;;;;;5063608;28;20041;-72
2023/06/17 00:43:42;;;;;;;20.02;16.13;;;16.30;99.90;;;;;;5025145;28;20041;-70
2023/06/17 00:46:22;;;;;;;20.42;15.65;;;16.30;99.90;;;;;;5059502;28;20052;-70
2023/06/17 00:48:48;;;;;;;21.05;16.38;;;16.20;99.90;;;;;;5039923;28;20076;-69
2023/06/17 00:51:15;;;;;;;17.00;14.57;;;16.20;99.90;;;;;;5074588;28;20156;-74
2023/06/17 00:53:41;;;;;;;20.85;14.80;;;16.30;99.90;;;;;;5047150;28;20048;-71
2023/06/17 00:56:07;;;;;;;17.05;14.75;;;16.30;99.90;;;;;;5052761;28;20178;-71
2023/06/17 00:58:35;;;;;;;16.25;13.68;;;16.20;99.90;;;;;;5039307;28;20422;-71
2023/06/17 01:01:01;;;;;;;19.85;14.98;;;16.30;99.90;;;;;;5075482;28;20044;-73
2023/06/17 01:03:29;;;;;;;18.63;14.43;;;16.30;99.90;;;;;;5033526;28;20043;-71
2023/06/17 01:05:59;;;;;;;17.02;13.50;;;16.30;99.90;;;;;;5050061;28;20131;-71
2023/06/17 01:08:44;;;;;;;23.92;15.30;;;16.30;99.90;;;;;;5039992;28;20048;-76
2023/06/17 01:11:16;;;;;;;16.67;14.43;;;16.20;99.90;;;;;;5061157;28;20036;-71
2023/06/17 01:13:43;;;;;;;19.65;16.10;;;16.20;99.90;;;;;;5099588;28;20037;-73
2023/06/17 01:16:09;;;;;;;18.02;14.27;;;16.20;99.90;;;;;;5054756;28;20456;-70
2023/06/17 01:18:36;;;;;;;18.05;12.90;;;16.00;99.90;;;;;;5065709;28;20044;-74
2023/06/17 01:21:03;;;;;;;17.73;12.90;;;16.10;99.90;;;;;;5063499;28;20040;-72
2023/06/17 01:23:32;;;;;;;15.25;13.20;;;16.00;99.90;;;;;;5062428;28;20049;-73
2023/06/17 01:25:58;;;;;;;16.10;13.07;;;16.00;99.90;;;;;;5059934;28;20142;-72
2023/06/17 01:28:24;;;;;;;16.02;13.15;;;15.90;99.90;;;;;;5063697;28;20105;-75
2023/06/17 01:30:54;;;;;;;15.45;13.35;;;15.80;99.90;;;;;;5030970;28;20037;-69
2023/06/17 01:33:20;;;;;;;16.75;13.23;;;16.00;99.90;;;;;;5062048;28;20036;-71
2023/06/17 01:36:07;;;;;;;19.50;15.02;;;15.90;99.90;;;;;;5044841;28;20041;-68
2023/06/17 01:38:35;;;;;;;18.58;13.63;;;15.80;99.90;;;;;;5084938;28;20037;-71
2023/06/17 01:41:34;;;;;;;16.73;14.05;;;15.90;99.90;;;;;;5052860;28;20597;-74
2023/06/17 01:44:01;;;;;;;19.95;14.43;;;15.80;99.90;;;;;;5050016;28;20092;-71
2023/06/17 01:46:27;;;;;;;18.13;13.77;;;15.80;99.90;;;;;;5054740;28;20079;-70
2023/06/17 01:48:54;;;;;;;17.60;13.50;;;15.70;99.90;;;;;;5056731;28;20051;-74
2023/06/17 01:51:20;;;;;;;16.67;13.25;;;15.60;99.90;;;;;;5065007;28;20044;-72
2023/06/17 01:53:46;;;;;;;17.05;13.30;;;15.60;99.90;;;;;;5051655;28;20117;-69
2023/06/17 01:56:12;;;;;;;18.70;13.25;;;15.60;99.90;;;;;;5034339;28;20029;-74
2023/06/17 01:58:39;;;;;;;16.88;13.07;;;15.70;99.90;;;;;;5090700;28;20094;-72
2023/06/17 02:01:05;;;;;;;18.00;13.40;;;15.80;99.90;;;;;;5037196;28;20169;-71
2023/06/17 02:03:31;;;;;;;15.93;13.20;;;15.80;99.90;;;;;;5044036;28;20044;-71
2023/06/17 02:05:57;;;;;;;17.20;12.90;;;15.70;99.90;;;;;;5044473;28;20041;-70
2023/06/17 02:08:23;;;;;;;16.40;12.85;;;15.70;99.90;;;;;;5060809;28;20086;-71
2023/06/17 02:10:49;;;;;;;18.02;12.65;;;15.70;99.90;;;;;;5061537;28;20049;-69
2023/06/17 02:13:15;;;;;;;16.77;12.80;;;15.70;99.90;;;;;;5039105;28;20037;-69
2023/06/17 02:15:42;;;;;;;14.52;12.68;;;15.90;99.90;;;;;;5035852;28;20032;-72
2023/06/17 02:18:09;;;;;;;18.17;13.90;;;15.70;99.90;;;;;;5058367;28;20044;-71
2023/06/17 02:20:35;;;;;;;17.40;13.75;;;15.80;99.90;;;;;;5052977;28;20041;-71
2023/06/17 02:23:01;;;;;;;17.63;13.60;;;15.70;99.90;;;;;;5057211;28;20048;-72
2023/06/17 02:25:26;;;;;;;15.32;12.85;;;15.70;99.90;;;;;;5064622;28;20488;-70
2023/06/17 02:27:52;;;;;;;16.17;13.77;;;15.80;99.90;;;;;;5051307;28;20037;-70
2023/06/17 02:30:18;;;;;;;16.92;13.32;;;15.70;99.90;;;;;;5031046;28;20120;-69
2023/06/17 02:32:43;;;;;;;18.63;14.30;;;15.90;99.90;;;;;;5055933;28;20036;-69
2023/06/17 02:35:10;;;;;;;15.63;13.75;;;15.70;99.90;;;;;;5042749;28;20052;-73
2023/06/17 02:37:37;;;;;;;19.92;14.23;;;15.80;99.90;;;;;;5049716;28;20037;-71
2023/06/17 02:40:08;;;;;;;20.25;14.18;;;15.70;99.90;;;;;;5055274;28;20044;-72
2023/06/17 02:42:38;;;;;;;15.75;13.43;;;15.70;99.90;;;;;;5041787;28;20102;-76
2023/06/17 02:45:04;;;;;;;19.83;13.38;;;15.80;99.90;;;;;;5064565;28;20066;-73
2023/06/17 02:47:30;;;;;;;17.50;14.95;;;15.80;99.90;;;;;;5083201;28;20036;-72
2023/06/17 02:49:56;;;;;;;16.33;13.02;;;15.70;99.90;;;;;;5065253;28;20048;-69
2023/06/17 02:52:22;;;;;;;16.75;13.45;;;15.80;99.90;;;;;;5054280;28;20044;-70
2023/06/17 02:54:48;;;;;;;16.23;13.88;;;15.70;99.90;;;;;;5042458;28;20037;-72
2023/06/17 02:57:15;;;;;;;21.23;14.88;;;15.80;99.90;;;;;;5053906;28;20041;-73
2023/06/17 02:59:41;;;;;;;19.65;14.77;;;15.80;99.90;;;;;;5040551;28;20037;-75
2023/06/17 03:02:06;;;;;;;19.27;13.80;;;15.70;99.90;;;;;;5043533;28;20048;-74
2023/06/17 03:04:35;;;;;;;15.50;13.70;;;15.80;99.90;;;;;;5054596;28;20045;-74
2023/06/17 03:07:03;;;;;;;18.90;14.10;;;15.70;99.90;;;;;;5038433;28;20472;-73
2023/06/17 03:09:28;;;;;;;14.40;12.90;;;15.70;99.90;;;;;;5032660;28;20098;-73
2023/06/17 03:11:54;;;;;;;15.65;13.48;;;15.80;99.90;;;;;;5045629;28;20041;-70
2023/06/17 03:14:20;;;;;;;16.88;12.98;;;15.70;99.90;;;;;;5063816;28;20033;-70
2023/06/17 03:16:46;;;;;;;15.82;13.07;;;15.80;99.90;;;;;;5056160;28;20048;-70
2023/06/17 03:19:14;;;;;;;18.70;13.55;;;15.70;99.90;;;;;;5052702;28;20123;-75
2023/06/17 03:21:42;;;;;;;18.15;12.98;;;15.70;99.90;;;;;;5027910;28;20036;-72
2023/06/17 03:24:08;;;;;;;19.50;13.18;;;15.80;99.90;;;;;;5066267;28;20044;-73
2023/06/17 03:26:34;;;;;;;14.70;13.20;;;15.70;99.90;;;;;;5063029;28;20036;-74
2023/06/17 03:29:01;;;;;;;15.82;14.00;;;15.60;99.90;;;;;;5059452;28;21331;-72
2023/06/17 03:31:28;;;;;;;15.88;13.82;;;15.70;99.90;;;;;;5059496;28;20098;-76
2023/06/17 03:33:54;;;;;;;17.48;14.85;;;15.80;99.90;;;;;;5068283;28;20045;-71
2023/06/17 03:36:39;;;;;;;21.75;16.38;;;15.70;99.90;;;;;;5064081;28;20040;-70
2023/06/17 03:39:05;;;;;;;19.15;15.63;;;15.60;99.90;;;;;;5061253;28;20033;-71
2023/06/17 03:41:31;;;;;;;19.77;15.32;;;15.70;99.90;;;;;;5056120;28;20571;-73
2023/06/17 03:43:57;;;;;;;17.48;15.48;;;15.50;99.90;;;;;;5044513;28;20431;-71
2023/06/17 03:46:23;;;;;;;18.77;16.77;;;15.60;99.90;;;;;;5059591;28;20043;-74
2023/06/17 03:48:48;;;;;;;17.35;15.52;;;15.50;99.90;;;;;;5062283;28;20049;-72
2023/06/17 03:51:14;;;;;;;19.45;16.60;;;15.50;99.90;;;;;;5057129;28;20444;-70
2023/06/17 03:53:40;;;;;;;17.17;15.38;;;15.60;99.90;;;;;;5049636;28;20484;-71
2023/06/17 03:56:06;;;;;;;23.35;17.17;;;15.60;99.90;;;;;;5061832;28;20485;-71
2023/06/17 03:58:32;;;;;;;21.02;16.50;;;15.60;99.90;;;;;;5051827;28;20153;-72
2023/06/17 04:00:57;;;;;;;18.55;16.23;;;15.60;99.90;;;;;;5066009;28;20496;-72
2023/06/17 04:03:25;;;;;;;18.33;15.85;;;15.60;99.90;;;;;;5054586;28;20049;-70
2023/06/17 04:05:54;;;;;;;19.60;17.25;;;15.60;99.90;;;;;;5052728;28;20043;-74
2023/06/17 04:08:22;;;;;;;19.63;16.60;;;15.70;99.90;;;;;;5058900;28;20150;-73
2023/06/17 04:10:48;;;;;;;19.30;17.15;;;15.70;99.90;;;;;;5033669;28;20712;-69
2023/06/17 04:13:14;;;;;;;19.48;17.25;;;15.70;99.90;;;;;;5060460;28;20509;-71
2023/06/17 04:15:41;;;;;;;21.90;18.15;;;15.70;99.90;;;;;;5056144;28;20055;-71
2023/06/17 04:18:07;;;;;;;20.48;17.00;;;15.70;99.90;;;;;;5066322;28;20498;-71
2023/06/17 04:20:34;;;;;;;21.55;18.02;;;15.70;99.90;;;;;;5064984;28;20078;-70
2023/06/17 04:23:00;;;;;;;21.52;17.25;;;15.70;99.90;;;;;;5052638;28;20053;-72
2023/06/17 04:25:27;;;;;;;22.55;16.58;;;15.60;99.90;;;;;;5057584;28;20115;-75
2023/06/17 04:27:56;;;;;;;21.45;18.33;;;15.70;99.90;;;;;;5057371;28;20048;-72
2023/06/17 04:30:25;;;;;;;18.60;16.15;;;15.60;99.90;;;;;;5047344;28;20700;-71
2023/06/17 04:32:54;;;;;;;18.98;14.73;;;15.80;99.90;;;;;;5054009;28;20488;-73
2023/06/17 04:35:20;;;;;;;21.30;16.33;;;15.60;99.90;;;;;;5049886;28;20071;-74
2023/06/17 04:37:53;;;;;;;17.38;15.57;;;15.70;99.90;;;;;;5044031;28;20032;-69
2023/06/17 04:40:20;;;;;;;18.25;14.98;;;15.70;99.90;;;;;;5036410;28;20481;-76
2023/06/17 04:42:47;;;;;;;17.88;15.57;;;15.70;99.90;;;;;;5059860;28;20365;-72
2023/06/17 04:45:13;;;;;;;19.63;16.52;;;15.80;99.90;;;;;;5036365;28;20667;-73
2023/06/17 04:47:39;;;;;;;21.38;15.02;;;15.80;99.90;;;;;;5036969;28;20366;-73
2023/06/17 04:50:05;;;;;;;16.88;14.85;;;15.70;99.90;;;;;;5065304;28;20046;-71
2023/06/17 04:52:31;;;;;;;18.02;14.45;;;15.90;99.90;;;;;;5049453;28;20045;-71
2023/06/17 04:54:57;;;;;;;16.65;13.77;;;15.70;99.90;;;;;;5041195;28;20044;-73
2023/06/17 04:57:23;;;;;;;20.02;14.50;;;15.80;99.90;;;;;;5052725;28;20073;-74
2023/06/17 04:59:48;;;;;;;15.77;13.52;;;15.80;99.90;;;;;;5028572;28;20049;-71
2023/06/17 05:02:14;;;;;;;16.02;13.77;;;15.90;99.90;;;;;;5048005;28;20196;-72
2023/06/17 05:04:40;;;;;;;22.08;15.07;;;15.90;99.90;;;;;;5063079;28;20056;-74
2023/06/17 05:07:06;;;;;;;19.67;14.57;;;16.00;99.90;;;;;;5060565;28;20071;-70
2023/06/17 05:09:32;;;;;;;17.30;15.32;;;16.00;99.90;;;;;;5035503;28;20037;-68
2023/06/17 05:11:58;;;;;;;19.25;13.70;;;15.90;99.90;;;;;;5031167;28;20033;-74
2023/06/17 05:14:24;;;;;;;19.98;15.60;;;15.90;99.90;;;;;;5066500;28;20094;-69
2023/06/17 05:16:50;;;;;;;19.00;15.93;;;16.00;99.90;;;;;;5049076;28;20389;-72
2023/06/17 05:19:16;;;;;;;18.88;15.68;;;16.10;99.90;;;;;;5059389;28;20045;-73
2023/06/17 05:21:41;;;;;;;21.92;16.02;;;15.90;99.90;;;;;;5064727;28;20041;-72
2023/06/17 05:24:07;;;;;;;17.42;15.55;;;15.90;99.90;;;;;;5046441;28;20122;-75
2023/06/17 05:26:33;;;;;;;21.45;16.13;;;16.00;99.90;;;;;;5065602;28;20390;-73
2023/06/17 05:28:58;;;;;;;18.52;16.35;;;16.00;99.90;;;;;;5052480;28;20123;-69
2023/06/17 05:31:24;;;;;;;18.63;15.93;;;16.00;99.90;;;;;;5040961;28;20506;-72
2023/06/17 05:33:50;;;;;;;22.35;17.70;;;16.10;99.90;;;;;;5054018;28;20049;-72
2023/06/17 05:36:16;;;;;;;19.77;17.05;;;15.90;99.90;;;;;;5049097;28;20087;-74
2023/06/17 05:38:41;;;;;;;21.45;16.67;;;16.00;99.90;;;;;;5054390;28;20369;-74
2023/06/17 05:41:07;;;;;;;19.27;16.95;;;16.00;99.90;;;;;;5075688;28;20044;-74
2023/06/17 05:43:33;;;;;;;20.98;17.10;;;16.00;99.90;;;;;;5030271;28;20409;-73
2023/06/17 05:45:58;;;;;;;21.88;17.95;;;16.10;99.90;;;;;;5073372;28;20099;-73
2023/06/17 05:48:24;;;;;;;23.27;18.08;;;16.20;99.90;;;;;;5048531;28;20045;-71
2023/06/17 05:50:50;;;;;;;20.67;16.80;;;16.10;99.90;;;;;;5034674;28;20543;-71
2023/06/17 05:53:15;;;;;;;20.38;16.05;;;16.20;99.90;;;;;;5052886;28;20044;-73
2023/06/17 05:55:42;;;;;;;18.10;14.48;;;16.30;99.90;;;;;;5056189;28;20044;-71
2023/06/17 05:58:08;;;;;;;15.15;13.60;;;16.30;99.90;;;;;;5041061;28;20041;-73
2023/06/17 06:00:34;;;;;;;19.98;14.70;;;16.20;99.90;;;;;;5055116;28;20041;-72
2023/06/17 06:02:59;;;;;;;19.05;14.27;;;16.20;99.90;;;;;;5080765;28;20044;-74
2023/06/17 06:05:25;;;;;;;17.00;14.35;;;16.40;99.90;;;;;;5057775;28;20457;-73
2023/06/17 06:07:50;;;;;;;17.42;14.23;;;16.40;99.90;;;;;;5051390;28;20558;-75
2023/06/17 06:10:16;;;;;;;16.48;14.35;;;16.40;99.90;;;;;;5074796;28;20036;-71
2023/06/17 06:12:42;;;;;;;17.80;12.55;;;16.40;99.90;;;;;;5046277;28;20120;-68
2023/06/17 06:15:08;;;;;;;16.42;12.60;;;16.50;99.90;;;;;;5051433;28;20090;-70
2023/06/17 06:17:33;;;;;;;15.65;12.50;;;16.50;99.90;;;;;;5068660;28;20154;-74
2023/06/17 06:19:59;;;;;;;14.27;12.45;;;16.70;99.90;;;;;;5061027;28;20127;-73
2023/06/17 06:22:25;;;;;;;17.35;12.05;;;16.50;99.90;;;;;;5031692;28;20036;-73
2023/06/17 06:24:51;;;;;;;13.70;11.63;;;16.70;99.90;;;;;;5052737;28;20044;-74
2023/06/17 06:27:17;;;;;;;15.57;12.40;;;16.70;99.90;;;;;;5036504;28;20051;-71
2023/06/17 06:29:42;;;;;;;15.15;11.82;;;16.80;99.90;;;;;;5053461;28;20049;-71
2023/06/17 06:32:08;;;;;;;14.02;12.13;;;16.80;99.90;;;;;;5057581;28;20036;-72
2023/06/17 06:34:34;;;;;;;13.68;11.32;;;16.80;99.90;;;;;;5065569;28;20040;-74
2023/06/17 06:36:59;;;;;;;15.38;12.30;;;16.90;99.90;;;;;;5057903;28;20457;-73
2023/06/17 06:39:26;;;;;;;16.92;11.48;;;16.90;99.90;;;;;;5066049;28;20070;-71
2023/06/17 06:41:52;;;;;;;15.65;11.52;;;17.00;99.90;;;;;;5069325;28;20711;-71
2023/06/17 06:44:18;;;;;;;12.95;11.02;;;17.20;99.90;;;;;;5066059;28;20041;-71
2023/06/17 06:46:44;;;;;;;14.65;11.15;;;17.40;99.90;;;;;;5050811;28;20389;-73
2023/06/17 06:49:10;;;;;;;14.63;10.88;;;17.50;99.90;;;;;;5040477;28;20066;-69
2023/06/17 06:51:36;;;;;;;18.85;11.90;;;17.50;99.90;;;;;;5050999;28;20049;-70
2023/06/17 06:54:05;;;;;;;15.95;11.85;;;17.50;99.90;;;;;;5048215;28;20063;-70
2023/06/17 06:56:31;;;;;;;19.85;12.60;;;17.40;99.90;;;;;;5053857;28;20029;-72
2023/06/17 06:58:57;;;;;;;16.25;11.52;;;17.30;99.90;;;;;;5065181;28;20150;-73
2023/06/17 07:01:29;;;;;;;15.32;12.23;;;17.30;99.90;;;;;;5063815;28;20091;-72
2023/06/17 07:03:55;;;;;;;15.27;11.93;;;17.30;99.90;;;;;;5053524;28;20473;-70
2023/06/17 07:06:20;;;;;;;15.98;12.30;;;17.40;99.90;;;;;;5038818;28;20075;-70
2023/06/17 07:08:46;;;;;;;16.63;11.85;;;17.50;99.90;;;;;;5056394;28;20491;-70
2023/06/17 07:11:12;;;;;;;14.18;11.80;;;17.60;99.90;;;;;;5065870;28;20044;-70
2023/06/17 07:13:37;;;;;;;16.13;11.55;;;17.80;99.90;;;;;;5041375;28;20036;-71
2023/06/17 07:16:04;;;;;;;17.02;12.00;;;17.80;99.90;;;;;;5085561;28;20040;-73
2023/06/17 07:18:30;;;;;;;16.67;11.63;;;17.90;99.90;;;;;;5049091;28;20044;-73
2023/06/17 07:20:56;;;;;;;16.42;12.07;;;17.80;99.90;;;;;;5061423;28;20048;-70
2023/06/17 07:23:26;;;;;;;15.07;11.45;;;17.90;99.90;;;;;;5013876;28;20504;-72
2023/06/17 07:25:51;;;;;;;17.33;12.70;;;18.10;99.90;;;;;;5021494;28;20080;-75
2023/06/17 07:28:17;;;;;;;13.70;11.20;;;18.20;99.90;;;;;;5031207;28;20095;-70
2023/06/17 07:30:43;;;;;;;14.35;11.40;;;18.30;99.90;;;;;;5033016;28;20478;-72
2023/06/17 07:33:09;;;;;;;15.43;10.95;;;18.30;99.90;;;;;;5025040;28;20028;-74
2023/06/17 07:35:35;;;;;;;15.27;11.60;;;18.60;99.90;;;;;;5062925;28;20153;-70
2023/06/17 07:38:00;;;;;;;13.73;11.40;;;18.70;99.90;;;;;;5063922;28;20085;-72
2023/06/17 07:40:26;;;;;;;13.82;11.35;;;18.80;99.90;;;;;;5056711;28;20044;-71
2023/06/17 07:42:52;;;;;;;16.10;11.75;;;18.80;99.90;;;;;;5046816;28;20579;-70
2023/06/17 07:45:17;;;;;;;15.88;10.98;;;18.80;99.90;;;;;;5036236;28;20132;-72
2023/06/17 07:47:43;;;;;;;15.60;11.15;;;18.90;99.90;;;;;;5067286;28;20511;-69
2023/06/17 07:50:10;;;;;;;14.60;11.00;;;19.20;99.90;;;;;;5035399;28;20033;-70
2023/06/17 07:52:36;;;;;;;16.08;10.32;;;19.30;99.90;;;;;;5075641;28;20107;-72
2023/06/17 07:55:03;;;;;;;13.45;11.00;;;19.60;99.90;;;;;;5057434;28;20049;-71
2023/06/17 07:57:28;;;;;;;11.85;10.00;;;19.20;99.90;;;;;;5059846;28;20044;-68
2023/06/17 07:59:54;;;;;;;18.50;10.23;;;19.40;99.90;;;;;;5082231;28;20049;-67
2023/06/17 08:02:21;;;;;;;11.45;10.20;;;19.50;99.90;;;;;;5032270;28;20048;-70
2023/06/17 08:04:47;;;;;;;11.27;10.05;;;19.50;99.90;;;;;;5082482;28;20660;-70
2023/06/17 08:07:13;;;;;;;11.80;9.85;;;19.50;99.90;;;;;;5045799;28;20048;-67
2023/06/17 08:09:39;;;;;;;12.30;9.90;;;19.70;99.90;;;;;;5072201;28;20041;-71
2023/06/17 08:12:05;;;;;;;13.95;9.98;;;19.90;99.90;;;;;;5036638;28;20071;-71
2023/06/17 08:14:31;;;;;;;14.07;9.95;;;19.90;99.90;;;;;;5062973;28;20040;-69
2023/06/17 08:16:57;;;;;;;12.95;9.98;;;19.80;99.90;;;;;;5041911;28;20043;-70
2023/06/17 08:19:23;;;;;;;13.95;9.75;;;20.00;99.90;;;;;;5065437;28;20039;-71
2023/06/17 08:21:49;;;;;;;12.55;10.00;;;20.10;99.90;;;;;;5062213;28;20044;-72
2023/06/17 08:24:25;;;;;;;11.38;9.80;;;20.20;99.90;;;;;;5047998;28;20050;-71
2023/06/17 08:26:52;;;;;;;11.07;8.77;;;20.30;99.90;;;;;;5068752;28;20161;-67
2023/06/17 08:29:19;;;;;;;11.57;9.70;;;20.70;99.90;;;;;;5054334;28;20365;-72
2023/06/17 08:31:47;;;;;;;11.02;9.50;;;20.60;99.90;;;;;;5059331;28;20063;-69
2023/06/17 08:34:13;;;;;;;13.52;10.20;;;20.80;99.90;;;;;;5049710;28;20197;-72
2023/06/17 08:36:43;;;;;;;13.07;10.15;;;20.80;99.90;;;;;;5051521;28;20120;-71
2023/06/17 08:39:09;;;;;;;11.55;9.70;;;20.90;99.90;;;;;;5086248;28;20033;-71
2023/06/17 08:41:40;;;;;;;12.68;9.43;;;21.10;99.90;;;;;;5052342;28;20219;-71
2023/06/17 08:44:10;;;;;;;15.63;10.05;;;21.40;99.90;;;;;;5033611;28;20072;-70
2023/06/17 08:46:36;;;;;;;12.95;9.68;;;21.10;99.90;;;;;;5051033;28;20041;-70
2023/06/17 08:49:02;;;;;;;14.23;9.18;;;21.10;99.90;;;;;;5032969;28;20132;-73
2023/06/17 08:51:29;;;;;;;11.57;8.77;;;20.90;99.90;;;;;;5035716;28;20051;-72
2023/06/17 08:53:55;;;;;;;10.43;9.30;;;20.90;99.90;;;;;;5037505;28;20060;-71
2023/06/17 08:56:21;;;;;;;11.30;8.82;;;21.00;99.90;;;;;;5063556;28;20037;-70
2023/06/17 08:58:49;;;;;;;12.68;9.00;;;21.10;99.90;;;;;;5044763;28;20031;-72
2023/06/17 09:01:17;;;;;;;11.02;8.23;;;21.50;99.90;;;;;;5041352;28;20044;-70
2023/06/17 09:03:43;;;;;;;9.90;8.35;;;21.70;99.90;;;;;;5044496;28;20430;-74
2023/06/17 09:06:20;;;;;;;10.65;8.60;;;21.70;99.90;;;;;;5082980;28;20103;-72
2023/06/17 09:08:56;;;;;;;12.52;8.45;;;21.80;99.90;;;;;;5052106;28;20535;-71
2023/06/17 09:11:29;;;;;;;9.93;8.05;;;22.10;99.90;;;;;;5069053;28;20131;-71
2023/06/17 09:14:00;;;;;;;10.37;8.27;;;22.40;99.90;;;;;;5047775;28;20656;-73
2023/06/17 09:16:34;;;;;;;10.55;8.52;;;22.60;99.90;;;;;;5066649;28;20276;-72
2023/06/17 09:19:05;;;;;;;8.27;7.47;;;23.00;99.90;;;;;;5054325;28;20048;-70
2023/06/17 09:21:31;;;;;;;11.13;7.95;;;23.00;99.90;;;;;;5049239;28;20163;-70
2023/06/17 09:24:02;;;;;;;10.00;7.93;;;22.70;99.90;;;;;;5055048;28;20041;-69
2023/06/17 09:26:33;;;;;;;8.65;7.78;;;22.40;99.90;;;;;;5067268;28;20151;-71
2023/06/17 09:29:03;;;;;;;11.30;8.45;;;23.00;99.90;;;;;;5050443;28;20047;-70
2023/06/17 09:31:30;;;;;;;11.82;8.18;;;22.90;99.90;;;;;;5072672;28;20044;-70
2023/06/17 09:33:56;;;;;;;10.73;7.68;;;22.90;99.90;;;;;;5024323;28;20056;-71
2023/06/17 09:36:23;;;;;;;11.23;8.25;;;23.50;99.90;;;;;;5060876;28;20469;-69
2023/06/17 09:38:52;;;;;;;12.40;8.20;;;23.90;99.90;;;;;;5032512;28;20051;-71
2023/06/17 09:41:20;;;;;;;9.68;7.95;;;23.50;99.90;;;;;;5049202;28;20098;-73
2023/06/17 09:43:53;;;;;;;10.63;7.78;;;24.30;99.90;;;;;;5018255;28;20029;-70
2023/06/17 09:46:29;;;;;;;12.02;7.65;;;24.20;99.90;;;;;;5042112;28;20059;-69
2023/06/17 09:48:58;;;;;;;7.88;6.85;;;24.30;99.90;;;;;;5032285;28;20062;-71
2023/06/17 09:51:36;;;;;;;8.75;7.15;;;24.40;99.90;;;;;;5032346;28;20081;-71
2023/06/17 09:54:02;;;;;;;13.18;7.90;;;24.40;99.90;;;;;;5046553;28;20048;-71
2023/06/17 09:56:31;;;;;;;9.05;7.65;;;24.20;99.90;;;;;;5055272;28;20048;-70
2023/06/17 09:58:58;;;;;;;7.78;6.95;;;23.80;99.90;;;;;;5043488;28;20051;-72
2023/06/17 10:01:30;;;;;;;10.20;7.22;;;24.60;99.90;;;;;;5046860;28;20037;-73
2023/06/17 10:04:02;;;;;;;8.15;6.78;;;24.90;99.90;;;;;;5048611;28;20049;-72
2023/06/17 10:06:30;;;;;;;8.75;7.25;;;25.00;99.90;;;;;;5058271;28;20060;-71
2023/06/17 10:08:57;;;;;;;8.75;7.25;;;25.10;99.90;;;;;;5053518;28;20040;-70
2023/06/17 10:11:25;;;;;;;8.75;7.55;;;24.70;99.90;;;;;;5038875;28;20052;-73
2023/06/17 10:14:01;;;;;;;10.60;7.90;;;24.80;99.90;;;;;;5047664;28;20427;-72
2023/06/17 10:16:31;;;;;;;9.73;7.45;;;24.90;99.90;;;;;;5064312;28;20424;-71
2023/06/17 10:19:01;;;;;;;9.15;7.10;;;25.40;99.90;;;;;;5064594;28;20496;-70
2023/06/17 10:21:29;;;;;;;7.63;6.82;;;25.10;99.90;;;;;;5058406;28;20040;-71
2023/06/17 10:23:57;;;;;;;7.65;6.47;;;25.20;99.90;;;;;;5064481;28;20041;-73
2023/06/17 10:26:23;;;;;;;8.00;6.82;;;25.10;99.90;;;;;;5090998;28;20129;-71
2023/06/17 10:29:06;;;;;;;9.85;6.95;;;25.30;99.90;;;;;;5036449;28;20174;-70
2023/06/17 10:31:39;;;;;;;7.88;6.13;;;25.10;99.90;;;;;;5049794;28;20049;-72
2023/06/17 10:34:07;;;;;;;7.88;6.85;;;25.10;99.90;;;;;;5032156;28;20101;-71
2023/06/17 10:36:35;;;;;;;22.20;7.75;;;25.60;99.90;;;;;;5058442;28;20039;-73
2023/06/17 10:39:09;;;;;;;7.70;6.68;;;25.40;99.90;;;;;;5059513;28;20048;-69
2023/06/17 10:41:37;;;;;;;;;;;26.20;99.90;;;;;;5065448;28;20095;-71
2023/06/17 10:44:22;;;;;;;28.92;7.55;;;25.60;99.90;;;;;;5065223;28;20404;-73
2023/06/17 10:46:51;;;;;;;8.00;6.50;;;26.40;99.90;;;;;;5054375;28;20193;-70
2023/06/17 10:49:17;;;;;;;8.15;6.85;;;26.20;99.90;;;;;;5059400;28;20039;-72
2023/06/17 10:51:50;;;;;;;9.50;6.68;;;26.10;99.90;;;;;;5059299;28;20443;-71
2023/06/17 10:54:29;;;;;;;10.63;6.68;;;26.20;99.90;;;;;;5050094;28;20398;-70
2023/06/17 10:56:55;;;;;;;9.20;7.13;;;26.50;99.90;;;;;;5043499;28;20047;-71
2023/06/17 10:59:27;;;;;;;9.88;7.65;;;26.60;99.90;;;;;;5028118;28;20032;-74
2023/06/17 11:02:03;;;;;;;7.47;6.72;;;26.40;99.90;;;;;;5045529;28;20049;-70
2023/06/17 11:04:32;;;;;;;9.00;6.55;;;26.70;99.90;;;;;;5092662;28;20048;-70
2023/06/17 11:06:59;;;;;;;9.88;7.10;;;27.00;1.00;;;;;;5051510;28;20523;-73
2023/06/17 11:09:25;;;;;;;8.05;6.50;;;27.50;1.00;;;;;;5047810;28;20045;-70
2023/06/17 11:11:53;;;;;;;10.90;8.00;;;26.70;1.00;;;;;;5049245;28;20060;-70
2023/06/17 11:14:18;;;;;;;8.48;7.15;;;26.90;1.00;;;;;;5068062;28;20098;-72
2023/06/17 11:16:44;;;;;;;9.50;7.00;;;27.50;99.90;;;;;;5033426;28;20037;-72
2023/06/17 11:19:10;;;;;;;10.10;6.95;;;27.80;99.90;;;;;;5039840;28;20036;-70
2023/06/17 11:21:37;;;;;;;8.20;6.93;;;27.90;79.90;;;;;;5045277;28;20127;-71
2023/06/17 11:24:03;;;;;;;9.95;6.90;;;27.10;99.90;;;;;;5041362;28;20475;-73
2023/06/17 11:26:29;;;;;;;7.82;6.53;;;27.40;55.70;;;;;;5083622;28;20049;-70
2023/06/17 11:28:55;;;;;;;8.18;6.45;;;27.50;99.90;;;;;;5039424;28;20040;-73
2023/06/17 11:31:25;;;;;;;12.35;6.70;;;27.20;99.90;;;;;;5051780;28;20389;-69
2023/06/17 11:34:00;;;;;;;8.40;6.30;;;27.20;99.90;;;;;;5062826;28;20052;-72
2023/06/17 11:36:26;;;;;;;8.10;6.22;;;26.60;99.90;;;;;;5066090;28;20037;-72
2023/06/17 11:38:55;;;;;;;7.05;5.57;;;27.10;99.90;;;;;;5034581;28;20124;-72
2023/06/17 11:41:25;;;;;;;7.10;6.40;;;27.50;99.90;;;;;;5044753;28;20432;-69
2023/06/17 11:43:52;;;;;;;7.93;6.50;;;27.20;1.00;;;;;;5050297;28;20043;-71
2023/06/17 11:46:22;;;;;;;10.30;6.78;;;27.60;99.90;;;;;;5065716;28;20532;-72
2023/06/17 11:48:48;;;;;;;8.75;7.07;;;27.80;1.00;;;;;;5055246;28;20040;-71
2023/06/17 11:51:17;;;;;;;7.15;6.45;;;27.40;92.90;;;;;;5065438;28;20049;-70
2023/06/17 11:53:48;;;;;;;10.02;6.78;;;27.50;1.00;;;;;;5060963;28;20110;-71
2023/06/17 11:56:21;;;;;;;10.35;6.78;;;27.30;99.90;;;;;;5058547;28;20053;-72
2023/06/17 11:58:51;;;;;;;8.50;6.07;;;27.70;24.30;;;;;;5058784;28;20468;-69
2023/06/17 12:01:22;;;;;;;7.50;6.10;;;27.70;99.90;;;;;;5035599;28;20071;-73
2023/06/17 12:03:48;;;;;;;7.85;6.20;;;28.20;99.90;;;;;;5067960;28;20052;-71
2023/06/17 12:06:18;;;;;;;7.50;6.05;;;28.20;1.00;;;;;;5045051;28;20041;-70
2023/06/17 12:08:44;;;;;;;8.23;6.03;;;27.90;1.00;;;;;;5042307;28;20401;-70
2023/06/17 12:11:26;;;;;;;7.00;5.93;;;28.20;78.80;;;;;;5055622;28;20048;-70
2023/06/17 12:13:52;;;;;;;6.32;5.72;;;28.00;99.90;;;;;;5070122;28;20079;-73
2023/06/17 12:16:27;;;;;;;6.65;6.05;;;27.70;1.00;;;;;;5064188;28;20485;-70
2023/06/17 12:18:53;;;;;;;9.02;6.22;;;27.80;99.90;;;;;;5076766;28;20033;-72
2023/06/17 12:21:20;;;;;;;9.48;5.95;;;27.50;1.00;;;;;;5088723;28;20071;-73
2023/06/17 12:23:46;;;;;;;6.63;5.82;;;27.70;99.90;;;;;;5066730;28;20481;-68
2023/06/17 12:26:12;;;;;;;6.38;5.38;;;27.70;99.90;;;;;;5059111;28;20043;-70
2023/06/17 12:28:40;;;;;;;10.18;5.82;;;27.90;99.90;;;;;;5062535;28;20052;-70
2023/06/17 12:31:05;;;;;;;8.38;6.07;;;27.70;99.90;;;;;;5039646;28;20048;-72
2023/06/17 12:33:31;;;;;;;7.07;6.38;;;27.30;99.90;;;;;;5050327;28;20040;-70
2023/06/17 12:35:57;;;;;;;6.60;5.55;;;27.00;99.90;;;;;;5069672;28;20044;-71